Data for 08/14/2016

Time Sea-Level Adjusted Pressure Absolute Pressure Temperature Relative Humidity Dew Point   
(mb) (inHg) (mb) (inHg) (C) (F) (%) (C) (F)
00:05 1021 30.15 850 25.1 17.6 63.8 36 2.6 36.8
00:10 1021 30.15 850 25.1 17.8 64 37 2.9 37.2
00:15 1021 30.15 850 25.1 17.4 63.3 39 3.4 38.2
00:20 1021 30.15 850 25.1 16.8 62.3 38 2.7 36.9
00:25 1021 30.15 850 25.1 16.8 62.3 38 2.5 36.6
00:30 1021 30.15 850 25.1 16.9 62.4 39 3.1 37.6
00:35 1021 30.15 850 25.1 16.5 61.8 42 3.8 38.8
00:40 1021 30.15 850 25.1 16.2 61.2 40 2.9 37.1
00:45 1021 30.15 850 25.1 16.3 61.3 40 2.6 36.8
00:50 1021 30.15 850 25.1 16.2 61.1 41 3.1 37.5
00:55 1021 30.15 850 25.1 16.2 61.2 44 3.9 39
01:00 1021 30.15 850 25.1 16.2 61.1 44 3.9 39
01:05 1021 30.15 850 25.1 16.3 61.3 41 3 37.4
01:10 1021 30.15 850 25.1 15.4 59.8 44 3.3 37.9
01:15 1021 30.15 850 25.1 14.9 58.8 45 3.2 37.7
01:20 1021 30.15 850 25.1 14.7 58.4 44 2.7 36.9
01:25 1021 30.15 850 25.1 14.9 58.8 42 2.2 36
01:30 1021 30.15 850 25.1 15.3 59.5 43 2.9 37.3
01:35 1021 30.15 850 25.1 15.1 59.3 45 3.3 37.9
01:40 1021 30.15 850 25.1 15.2 59.3 45 3.3 37.9
01:45 1021 30.15 850 25.1 15 59 43 2.7 36.9
01:50 1021 30.15 850 25.1 14.9 58.7 46 3.5 38.4
01:55 1021 30.15 850 25.1 14.8 58.7 43 2.5 36.6
02:00 1021 30.15 850 25.1 14.7 58.5 45 3 37.5
02:05 1021 30.15 850 25.1 14.4 57.9 44 2.5 36.5
02:10 1021 30.15 850 25.1 14.6 58.3 44 2.4 36.4
02:15 1021 30.15 850 25.1 14.8 58.7 45 3.1 37.6
02:20 1021 30.15 850 25.1 14.4 57.9 46 3 37.5
02:25 1021 30.15 850 25.1 14.3 57.7 46 2.8 37
02:30 1021 30.15 850 25.1 14.7 58.4 42 1.9 35.4
02:35 1021 30.15 850 25.1 15 59 43 2.5 36.5
02:40 1021 30.15 850 25.1 14.8 58.6 45 3.1 37.6
02:45 1021 30.15 850 25.1 14.7 58.4 45 3.1 37.6
02:50 1021 30.15 850 25.1 14.6 58.3 45 2.8 37
02:55 1021 30.15 850 25.1 14.4 58 45 2.7 36.8
03:00 1021 30.15 850 25.1 14.4 57.8 45 2.5 36.5
03:05 1021 30.15 850 25.1 14.5 58.2 44 2.6 36.6
03:10 1021 30.15 850 25.1 14.8 58.6 44 2.7 36.8
03:15 1021 30.15 850 25.1 14.9 58.9 43 2.6 36.6
03:20 1021 30.15 850 25.1 14.8 58.7 43 2.5 36.5
03:25 1021 30.15 850 25.1 14.7 58.4 44 2.6 36.6
03:30 1021 30.15 850 25.1 14.8 58.6 43 2.5 36.4
03:35 1021 30.15 850 25.1 15.1 59.1 43 2.6 36.6
03:40 1021 30.15 850 25.1 15.1 59.2 43 2.8 37
03:45 1021 30.15 850 25.1 15 59 44 2.8 37.1
03:50 1021 30.15 850 25.1 14.6 58.4 44 2.6 36.7
03:55 1021 30.15 850 25.1 14.7 58.4 44 2.7 36.8
04:00 1021 30.15 850 25.1 14.7 58.4 45 2.8 37.1
04:05 1021 30.15 850 25.1 14.8 58.6 44 2.7 36.9
04:10 1021 30.15 850 25.1 15 58.9 42 2.4 36.3
04:15 1021 30.15 850 25.1 15 59.1 43 2.7 36.8
04:20 1021 30.15 850 25.1 14.9 58.8 44 2.9 37.2
04:25 1021 30.15 850 25.1 14.7 58.4 44 2.8 37
04:30 1021 30.15 850 25.1 14.7 58.4 45 3 37.5
04:35 1021 30.15 850 25.1 14.5 58.2 45 2.9 37.2
04:40 1021 30.15 850 25.1 14.5 58 45 2.8 37.1
04:45 1021 30.15 850 25.1 14.4 58 46 2.9 37.2
04:50 1021 30.15 850 25.1 14.6 58.3 44 2.6 36.7
04:55 1021 30.15 850 25.1 14.9 58.7 43 2.5 36.5
05:00 1021 30.15 850 25.1 15.2 59.3 43 2.7 36.9
05:05 1021 30.15 850 25.1 15.2 59.3 44 3.1 37.6
05:10 1021 30.15 850 25.1 15 59 45 3.1 37.6
05:15 1021 30.15 850 25.1 14.9 58.7 45 3.2 37.8
05:20 1021 30.15 850 25.1 14.7 58.4 45 3.1 37.5
05:25 1021 30.15 850 25.1 14.5 58.1 46 3.1 37.6
05:30 1021 30.15 850 25.1 14.5 58.1 45 2.9 37.2
05:35 1021 30.15 850 25.1 14.5 58 45 2.8 37.1
05:40 1021 30.15 850 25.1 14.5 58.1 45 2.9 37.1
05:45 1021 30.15 850 25.1 14.6 58.3 45 2.9 37.2
05:50 1021 30.15 850 25.1 14.7 58.4 44 2.8 37
05:55 1021 30.15 850 25.1 14.9 58.9 44 2.8 37
06:00 1021 30.15 850 25.1 15 59.1 43 2.6 36.7
06:05 1021 30.15 850 25.1 15.2 59.4 42 2.5 36.5
06:10 1021 30.15 850 25.1 15.4 59.7 42 2.6 36.8
06:15 1021 30.15 850 25.1 15.2 59.4 44 3.2 37.7
06:20 1021 30.15 850 25.1 14.8 58.6 44 2.6 36.7
06:25 1021 30.15 850 25.1 14.6 58.3 45 3 37.4
06:30 1021 30.15 850 25.1 14.4 57.9 46 2.9 37.2
06:35 1021 30.15 850 25.1 14.6 58.2 47 3.4 38
06:40 1021 30.15 850 25.1 14.7 58.4 48 4 39.1
06:45 1021 30.15 850 25.1 14.7 58.4 46 3.4 38.1
06:50 1021 30.15 850 25.1 14.8 58.6 44 2.7 36.9
06:55 1021 30.15 850 25.1 15 58.9 44 2.9 37.3
07:00 1021 30.15 850 25.1 15.4 59.7 44 3.2 37.7
07:05 1021 30.15 850 25.1 15.6 60 44 3.6 38.4
07:10 1021 30.15 850 25.1 15.8 60.4 46 4.3 39.7
07:15 1021 30.15 850 25.1 15.5 60 45 3.8 38.8
07:20 1021 30.15 851 25.13 15.5 60 46 4.1 39.5
07:25 1021 30.15 851 25.13 16 60.9 44 4 39.2
07:30 1021 30.15 851 25.13 16.8 62.2 42 4 39.2
07:35 1021 30.15 851 25.13 17.3 63.1 43 4.7 40.5
07:40 1021 30.15 851 25.13 17.1 62.7 44 4.9 40.8
07:45 1021 30.15 851 25.13 17 62.6 40 3.5 38.4
07:50 1021 30.15 851 25.13 17.3 63.1 44 4.9 40.8
07:55 1022 30.18 851 25.13 17.4 63.4 41 4.2 39.6
08:00 1022 30.18 851 25.13 17.7 63.9 42 4.7 40.5
08:05 1022 30.18 851 25.13 17.9 64.2 40 4.3 39.7
08:10 1022 30.18 851 25.13 18.4 65.2 40 4.8 40.6
08:15 1022 30.18 851 25.13 19.1 66.3 39 4.9 40.9
08:20 1022 30.18 851 25.13 20 68 36 4.5 40.1
08:25 1022 30.18 851 25.13 20.5 68.9 33 4 39.2
08:30 1022 30.18 851 25.13 20.7 69.2 33 3.9 38.9
08:35 1022 30.18 851 25.13 20.8 69.5 33 4 39.2
08:40 1022 30.18 851 25.13 20.8 69.5 32 3.7 38.7
08:45 1022 30.18 851 25.13 21.1 70 31 3.6 38.4
08:50 1022 30.18 851 25.13 22 71.5 32 4.7 40.5
08:55 1022 30.18 851 25.13 21 69.8 33 4.4 39.8
09:00 1022 30.18 851 25.13 20.7 69.3 30 2.8 37.1
09:05 1022 30.18 851 25.13 20.8 69.4 32 3.6 38.4
09:10 1022 30.18 851 25.13 21.2 70.2 30 3.2 37.7
09:15 1022 30.18 851 25.13 21.4 70.5 31 3.8 38.8
09:20 1022 30.18 851 25.13 21.6 71 29 3 37.4
09:25 1022 30.18 851 25.13 21.9 71.5 28 2.9 37.3
09:30 1021 30.15 851 25.13 22.1 71.8 26 2 35.6
09:35 1021 30.15 851 25.13 23.1 73.6 24 1.5 34.7
09:40 1021 30.15 851 25.13 23.2 73.8 24 1.9 35.5
09:45 1022 30.18 851 25.13 23.7 74.7 24 2.3 36.1
09:50 1022 30.18 851 25.13 24.1 75.4 25 3.1 37.7
09:55 1022 30.18 851 25.13 24.6 76.3 23 2.3 36.1
10:00 1021 30.15 851 25.13 24.3 75.8 23 1.8 35.3
10:05 1021 30.15 851 25.13 24.4 75.8 23 1.9 35.4
10:10 1021 30.15 851 25.13 24.9 76.8 22 2.3 36.1
10:15 1021 30.15 851 25.13 25.6 78 21 2 35.6
10:20 1022 30.18 851 25.13 25.7 78.3 20 1.7 35
10:25 1022 30.18 851 25.13 25.2 77.4 22 2.3 36.1
10:30 1022 30.18 851 25.13 25.5 77.8 21 2.1 35.7
10:35 1021 30.15 851 25.13 26.1 78.9 20 1.5 34.7
10:40 1021 30.15 851 25.13 26.2 79.1 19 1.3 34.3
10:45 1021 30.15 851 25.13 25.8 78.4 20 1.6 34.9
10:50 1021 30.15 851 25.13 25.7 78.3 20 1.2 34.2
10:55 1021 30.15 851 25.13 26.1 78.9 21 2.3 36.1
11:00 1021 30.15 851 25.13 25.6 78.1 20 1.1 33.9
11:05 1021 30.15 851 25.13 26.4 79.6 17 -0.1 31.8
11:10 1021 30.15 851 25.13 25.8 78.4 20 1.7 35.1
11:15 1021 30.15 850 25.1 26.2 79.2 18 0.6 33
11:20 1021 30.15 850 25.1 26.6 79.8 20 1.7 35.1
11:25 1021 30.15 850 25.1 26.9 80.5 19 1.3 34.3
11:30 1021 30.15 850 25.1 26.5 79.7 19 1.5 34.8
11:35 1021 30.15 850 25.1 26.2 79.2 21 2.6 36.7
11:40 1021 30.15 850 25.1 26.9 80.3 18 1.1 33.9
11:45 1021 30.15 850 25.1 26.5 79.7 18 0.9 33.6
11:50 1021 30.15 850 25.1 27.4 81.4 18 1.5 34.7
11:55 1021 30.15 850 25.1 27.2 81 19 2.2 36
12:00 1021 30.15 850 25.1 27.1 80.8 19 2.1 35.7
12:05 1021 30.15 850 25.1 27 80.7 18 1.1 33.9
12:10 1021 30.15 850 25.1 26.7 80 19 1.7 35
12:15 1021 30.15 850 25.1 27.1 80.8 18 1.2 34.1
12:20 1021 30.15 850 25.1 26.2 79.2 20 1.6 34.8
12:25 1021 30.15 850 25.1 25.9 78.7 21 1.9 35.5
12:30 1021 30.15 850 25.1 26.6 79.9 18 0.7 33.3
12:35 1021 30.15 850 25.1 27.7 81.8 17 0.6 33
12:40 1021 30.15 850 25.1 27.2 80.9 17 0.5 32.8
12:45 1021 30.15 850 25.1 27.7 81.8 15 -0.6 31
12:50 1021 30.15 850 25.1 27.9 82.2 15 -0.5 31.2
12:55 1021 30.15 850 25.1 28.3 82.9 15 -0.4 31.3
13:00 1021 30.15 850 25.1 28.3 82.9 15 -0.8 30.6
13:05 1021 30.15 850 25.1 28.4 83.1 16 0.2 32.4
13:10 1021 30.15 850 25.1 27.7 81.9 17 0.7 33.3
13:15 1020 30.12 850 25.1 28.3 82.9 15 -0.2 31.7
13:20 1020 30.12 850 25.1 27.9 82.3 17 0.7 33.2
13:25 1020 30.12 850 25.1 27.4 81.4 17 0.8 33.5
13:30 1020 30.12 850 25.1 27.2 81 16 -0.9 30.5
13:35 1020 30.12 850 25.1 27.9 82.1 16 -0.2 31.7
13:40 1020 30.12 850 25.1 27 80.5 18 0.6 33.1
13:45 1020 30.12 850 25.1 26.2 79.1 18 0.5 32.9
13:50 1020 30.12 850 25.1 25.8 78.5 19 1 33.7
13:55 1020 30.12 849 25.07 26 78.9 18 0.4 32.6
14:00 1020 30.12 849 25.07 26.3 79.3 17 -0.1 31.8
14:05 1020 30.12 849 25.07 27.4 81.4 16 -0.2 31.6
14:10 1020 30.12 849 25.07 27.8 82 16 -0.3 31.5
14:15 1020 30.12 849 25.07 27.7 81.8 16 0.2 32.4
14:20 1020 30.12 849 25.07 28.1 82.6 15 -0.4 31.3
14:25 1020 30.12 849 25.07 28.7 83.6 15 -0.1 31.8
14:30 1020 30.12 849 25.07 28.6 83.4 15 -0.3 31.4
14:35 1020 30.12 849 25.07 29.2 84.5 15 0 32
14:40 1020 30.12 849 25.07 28.8 83.9 14 -0.9 30.4
14:45 1020 30.12 849 25.07 29.1 84.3 15 -0.3 31.5
14:50 1020 30.12 849 25.07 29 84.1 14 -0.9 30.4
14:55 1020 30.12 849 25.07 29.3 84.7 14 -0.3 31.5
15:00 1020 30.12 849 25.07 29.6 85.3 14 -0.3 31.5
15:05 1020 30.12 849 25.07 29.3 84.7 14 -0.5 31.1
15:10 1020 30.12 849 25.07 29 84.2 14 -0.8 30.6
15:15 1020 30.12 849 25.07 29.3 84.8 13 -1.3 29.6
15:20 1020 30.12 849 25.07 30.3 86.5 13 -0.6 30.9
15:25 1019 30.09 849 25.07 29.8 85.7 14 -0.6 30.9
15:30 1019 30.09 849 25.07 29.7 85.5 13 -1.1 30
15:35 1019 30.09 849 25.07 29.7 85.5 13 -1.6 29
15:40 1019 30.09 848 25.04 29.8 85.6 14 -0.7 30.8
15:45 1019 30.09 848 25.04 30.3 86.6 13 -0.5 31
15:50 1019 30.09 848 25.04 29.9 85.8 14 -0.6 31
15:55 1019 30.09 848 25.04 29 84.3 13 -1.6 29.2
16:00 1019 30.09 848 25.04 29 84.3 13 -1.7 28.9
16:05 1019 30.09 848 25.04 29.8 85.6 13 -0.7 30.7
16:10 1019 30.09 848 25.04 30.1 86.1 12 -1.6 29.2
16:15 1019 30.09 848 25.04 28.7 83.6 13 -1.6 29.1
16:20 1019 30.09 848 25.04 28.8 83.8 14 -1.3 29.7
16:25 1019 30.09 848 25.04 29.4 84.9 13 -1.1 30
16:30 1019 30.09 848 25.04 29.4 84.9 13 -1.1 30
16:35 1019 30.09 848 25.04 29.5 85.2 12 -2 28.3
16:40 1019 30.09 848 25.04 30.1 86.2 12 -2.3 27.8
16:45 1019 30.09 848 25.04 30.2 86.3 12 -2 28.5
16:50 1019 30.09 848 25.04 30.2 86.4 11 -2.6 27.2
16:55 1019 30.09 848 25.04 30.3 86.6 11 -2.6 27.4
17:00 1019 30.09 848 25.04 29.9 85.8 12 -2.5 27.5
17:05 1019 30.09 848 25.04 29.7 85.5 12 -2.4 27.7
17:10 1019 30.09 848 25.04 29.7 85.4 12 -2.5 27.5
17:15 1019 30.09 848 25.04 30 86 11 -2.8 26.9
17:20 1019 30.09 848 25.04 30 85.9 12 -2.6 27.3
17:25 1019 30.09 848 25.04 29.4 84.9 12 -2.3 27.8
17:30 1019 30.09 848 25.04 29.4 84.9 12 -2.5 27.6
17:35 1019 30.09 848 25.04 29.5 85 12 -2.4 27.6
17:40 1019 30.09 848 25.04 28.7 83.6 12 -2.8 26.9
17:45 1019 30.09 848 25.04 28.4 83.2 13 -2.4 27.8
17:50 1019 30.09 848 25.04 28.4 83 13 -2.6 27.2
17:55 1019 30.09 848 25.04 28.2 82.7 13 -2.4 27.6
18:00 1019 30.09 848 25.04 27.9 82.3 13 -3 26.7
18:05 1019 30.09 848 25.04 27.8 82.1 13 -2.5 27.6
18:10 1019 30.09 848 25.04 27.9 82.2 14 -2.1 28.3
18:15 1019 30.09 848 25.04 27.8 82 14 -1.8 28.8
18:20 1019 30.09 848 25.04 27.8 82.1 14 -1.5 29.3
18:25 1019 30.09 848 25.04 27.8 82 15 -1 30.2
18:30 1019 30.09 848 25.04 27.7 81.9 14 -2 28.4
18:35 1019 30.09 848 25.04 27.6 81.7 15 -1.5 29.4
18:40 1019 30.09 848 25.04 27.5 81.4 15 -1.6 29.1
18:45 1019 30.09 848 25.04 27.3 81.2 15 -1.1 30
18:50 1019 30.09 848 25.04 27.3 81.1 17 0.2 32.3
18:55 1019 30.09 848 25.04 27.2 80.9 15 -1.6 29.1
19:00 1019 30.09 848 25.04 26.9 80.4 17 0.1 32.2
19:05 1019 30.09 848 25.04 26.7 80 15 -1.9 28.7
19:10 1019 30.09 848 25.04 26.5 79.7 16 -0.8 30.5
19:15 1019 30.09 848 25.04 26.4 79.5 17 -0 31.9
19:20 1019 30.09 848 25.04 26.2 79.2 20 1.5 34.6
19:25 1019 30.09 848 25.04 26.1 78.9 17 -0.4 31.2
19:30 1019 30.09 849 25.07 26 78.8 17 -0.6 30.9
19:35 1019 30.09 849 25.07 25.9 78.6 18 0 32
19:40 1019 30.09 849 25.07 25.7 78.3 22 2.5 36.4
19:45 1019 30.09 849 25.07 24.6 76.2 24 3.1 37.6
19:50 1020 30.12 849 25.07 23.5 74.3 25 2.4 36.4
19:55 1020 30.12 849 25.07 22.9 73.2 24 1.6 34.9
20:00 1020 30.12 849 25.07 22.6 72.6 24 1.4 34.5
20:05 1020 30.12 849 25.07 22.8 73 21 -0.2 31.6
20:10 1020 30.12 849 25.07 24 75.2 20 -0.2 31.6
20:15 1020 30.12 849 25.07 24.1 75.4 21 0.9 33.6
20:20 1020 30.12 849 25.07 23.8 74.9 21 0.7 33.3
20:25 1020 30.12 849 25.07 23.7 74.6 22 0.8 33.4
20:30 1020 30.12 849 25.07 23.5 74.3 22 0.8 33.5
20:35 1020 30.12 849 25.07 23.4 74.2 22 0.7 33.2
20:40 1020 30.12 850 25.1 23.3 73.9 22 0.7 33.2
20:45 1020 30.12 850 25.1 23.1 73.7 22 0.4 32.7
20:50 1020 30.12 850 25.1 23.2 73.7 22 0.4 32.7
20:55 1020 30.12 850 25.1 23.1 73.6 22 0.3 32.5
21:00 1021 30.15 850 25.1 23.2 73.7 22 0.3 32.6
21:05 1021 30.15 850 25.1 23 73.3 22 0.6 33
21:10 1021 30.15 850 25.1 22.8 73 24 1.5 34.6
21:15 1021 30.15 850 25.1 22.2 72 25 1.7 35
21:20 1021 30.15 850 25.1 21.6 70.9 27 2 35.6
21:25 1021 30.15 850 25.1 21.4 70.4 26 1.1 34
21:30 1021 30.15 850 25.1 21.5 70.8 25 0.9 33.7
21:35 1021 30.15 850 25.1 21.6 70.8 25 1.1 33.9
21:40 1021 30.15 850 25.1 21.6 70.9 24 0.5 32.8
21:45 1021 30.15 850 25.1 22.1 71.9 24 0.6 33.1
21:50 1021 30.15 850 25.1 22.1 71.7 25 1.3 34.4
21:55 1021 30.15 850 25.1 21.8 71.2 26 1.5 34.8
22:00 1021 30.15 850 25.1 21.8 71.2 24 0.3 32.6
22:05 1021 30.15 850 25.1 22.2 72 22 -0.4 31.3
22:10 1021 30.15 850 25.1 22.6 72.7 27 2.8 37
22:15 1021 30.15 850 25.1 22 71.7 25 1.5 34.7
22:20 1021 30.15 850 25.1 21.5 70.6 27 1.8 35.3
22:25 1021 30.15 850 25.1 21.1 70.1 27 1.8 35.3
22:30 1021 30.15 850 25.1 21 69.8 28 1.8 35.2
22:35 1021 30.15 850 25.1 20.9 69.6 28 2 35.6
22:40 1021 30.15 850 25.1 21 69.8 27 1.6 34.9
22:45 1021 30.15 850 25.1 21.1 70 29 2.5 36.6
22:50 1021 30.15 850 25.1 21.1 70 27 1.6 35
22:55 1021 30.15 850 25.1 21.2 70.2 28 2.3 36.2
23:00 1021 30.15 850 25.1 21 69.9 32 3.8 38.9
23:05 1021 30.15 850 25.1 20.4 68.6 35 4.5 40.1
23:10 1021 30.15 850 25.1 19.5 67.1 35 3.9 39.1
23:15 1021 30.15 850 25.1 19 66.2 37 4.3 39.7
23:20 1021 30.15 850 25.1 19 66.3 34 3 37.4
23:25 1021 30.15 850 25.1 19 66.1 33 2.7 36.8
23:30 1021 30.15 850 25.1 18.9 66 32 2.1 35.8
23:35 1021 30.15 850 25.1 19.2 66.6 28 0.6 33.1
23:40 1021 30.15 850 25.1 19.7 67.5 32 2.5 36.6
23:45 1021 30.15 850 25.1 19.5 67.1 28 0.8 33.4
23:50 1021 30.15 850 25.1 19.8 67.7 29 1.4 34.5
23:55 1021 30.15 850 25.1 19.7 67.5 28 0.7 33.2
24:00 1021 30.15 850 25.1 20.2 68.4 27 0.7 33.3